createdAt,value
2019-05-23T00:03:45.609Z,13.23
2019-05-23T00:09:08.564Z,13.23
2019-05-23T00:14:30.655Z,13.24
2019-05-23T00:19:33.564Z,13.22
2019-05-23T00:24:38.401Z,13.18
2019-05-23T00:29:43.687Z,13.19
2019-05-23T00:34:48.375Z,13.18
2019-05-23T00:39:52.628Z,13.18
2019-05-23T00:44:57.190Z,13.16
2019-05-23T00:50:01.576Z,13.12
2019-05-23T00:55:05.620Z,13.06
2019-05-23T01:00:12.198Z,13.01
2019-05-23T01:05:15.660Z,12.97
2019-05-23T01:10:18.805Z,12.96
2019-05-23T01:15:23.865Z,12.94
2019-05-23T01:20:35.709Z,12.92
2019-05-23T01:25:39.352Z,12.92
2019-05-23T01:30:45.475Z,12.94
2019-05-23T01:35:48.322Z,12.89
2019-05-23T01:40:51.015Z,12.86
2019-05-23T01:45:55.256Z,12.78
2019-05-23T01:50:58.000Z,12.75
2019-05-23T01:56:01.394Z,12.70
2019-05-23T02:01:04.186Z,12.65
2019-05-23T02:06:09.671Z,12.58
2019-05-23T02:11:14.255Z,12.51
2019-05-23T02:16:18.646Z,12.42
2019-05-23T02:21:21.730Z,12.38
2019-05-23T02:26:26.162Z,12.30
2019-05-23T02:31:29.254Z,12.28
2019-05-23T02:36:33.339Z,12.21
2019-05-23T02:41:55.210Z,12.15
2019-05-23T02:47:24.562Z,12.08
2019-05-23T02:52:38.653Z,12.06
2019-05-23T02:57:42.813Z,12.06
2019-05-23T03:02:51.006Z,12.02
2019-05-23T03:07:58.764Z,12.01
2019-05-23T03:13:04.708Z,12.00
2019-05-23T03:18:10.219Z,11.95
2019-05-23T03:23:14.851Z,11.86
2019-05-23T03:28:18.602Z,11.78
2019-05-23T03:33:22.952Z,11.72
2019-05-23T03:38:27.581Z,11.66
2019-05-23T03:43:31.351Z,11.61
2019-05-23T03:48:34.143Z,11.58
2019-05-23T03:53:38.224Z,11.49
2019-05-23T03:58:40.684Z,11.45
2019-05-23T04:03:46.845Z,11.38
2019-05-23T04:08:49.876Z,11.34
2019-05-23T04:13:52.794Z,11.28
2019-05-23T04:18:56.213Z,11.16
2019-05-23T04:23:59.269Z,11.08
2019-05-23T04:29:02.541Z,11.05
2019-05-23T04:34:05.433Z,11.07
2019-05-23T04:39:08.937Z,10.99
2019-05-23T04:44:12.719Z,10.95
2019-05-23T04:49:15.553Z,10.94
2019-05-23T04:54:18.275Z,10.99
2019-05-23T04:59:23.615Z,11.12
2019-05-23T05:04:26.605Z,11.12
2019-05-23T05:09:32.487Z,11.18
2019-05-23T05:14:36.403Z,11.27
2019-05-23T05:19:39.400Z,11.32
2019-05-23T05:24:42.499Z,11.41
2019-05-23T05:29:44.927Z,11.47
2019-05-23T05:34:48.259Z,11.57
2019-05-23T05:39:51.000Z,11.65
2019-05-23T05:44:54.106Z,11.69
2019-05-23T05:49:57.564Z,11.78
2019-05-23T05:55:01.149Z,11.83
2019-05-23T06:00:12.649Z,11.89
2019-05-23T06:05:20.968Z,11.96
2019-05-23T06:10:24.692Z,12.07
2019-05-23T06:15:27.665Z,12.17
2019-05-23T06:20:30.518Z,12.22
2019-05-23T06:25:33.907Z,12.27
2019-05-23T06:30:39.378Z,12.33
2019-05-23T06:35:42.977Z,12.53
2019-05-23T06:40:46.017Z,12.66
2019-05-23T06:45:49.400Z,12.56
2019-05-23T06:50:51.814Z,12.71
2019-05-23T06:55:54.064Z,12.83
2019-05-23T07:00:56.581Z,13.06
2019-05-23T07:05:59.550Z,13.17
2019-05-23T07:11:02.074Z,13.37
2019-05-23T07:16:04.840Z,13.83
2019-05-23T07:21:09.572Z,15.11
2019-05-23T07:26:12.939Z,15.79
2019-05-23T07:31:16.353Z,17.82
2019-05-23T07:36:20.364Z,20.02
2019-05-23T07:41:23.080Z,21.02
2019-05-23T07:46:27.008Z,22.05
2019-05-23T07:51:29.954Z,22.44
2019-05-23T07:56:36.386Z,23.70
2019-05-23T08:01:43.478Z,24.35
2019-05-23T08:06:49.038Z,23.38
2019-05-23T08:11:50.566Z,23.17
2019-05-23T08:16:53.110Z,24.38
2019-05-23T08:21:55.770Z,23.81
2019-05-23T08:26:58.906Z,24.08
2019-05-23T08:32:02.056Z,24.31
2019-05-23T08:37:07.355Z,24.56
2019-05-23T08:42:11.925Z,24.32
2019-05-23T08:47:14.877Z,24.40
2019-05-23T08:52:17.480Z,24.26
2019-05-23T08:57:21.597Z,24.03
2019-05-23T09:02:25.305Z,23.92
2019-05-23T09:07:27.802Z,24.25
2019-05-23T09:12:31.339Z,23.96
2019-05-23T09:17:51.364Z,23.72
2019-05-23T09:22:39.205Z,23.46
2019-05-23T09:27:42.060Z,24.67
2019-05-23T09:32:45.044Z,24.13
2019-05-23T09:37:47.539Z,24.62
2019-05-23T09:42:50.408Z,25.32
2019-05-23T09:47:54.784Z,25.61
2019-05-23T09:52:57.189Z,26.05
2019-05-23T09:57:59.621Z,26.29
2019-05-23T10:03:02.486Z,25.63
2019-05-23T10:08:05.097Z,25.94
2019-05-23T10:13:07.261Z,26.33
2019-05-23T10:18:15.511Z,27.09
2019-05-23T10:23:18.472Z,27.74
2019-05-23T10:28:21.728Z,28.08
2019-05-23T10:33:24.179Z,28.15
2019-05-23T10:38:29.448Z,27.86
2019-05-23T10:43:31.456Z,27.20
2019-05-23T10:48:35.935Z,26.94
2019-05-23T10:53:39.718Z,27.24
2019-05-23T10:58:42.374Z,27.05
2019-05-23T11:03:45.628Z,27.18
2019-05-23T11:08:48.427Z,27.31
2019-05-23T11:13:51.437Z,27.33
2019-05-23T11:18:54.993Z,27.42
2019-05-23T11:23:58.458Z,27.63
2019-05-23T11:29:01.338Z,27.80
2019-05-23T11:34:04.560Z,27.86
2019-05-23T11:39:08.335Z,27.95
2019-05-23T11:44:10.494Z,27.71
2019-05-23T11:49:14.081Z,27.44
2019-05-23T11:54:16.608Z,26.27
2019-05-23T11:59:19.382Z,26.45
2019-05-23T12:04:24.670Z,26.69
2019-05-23T12:09:28.720Z,26.73
2019-05-23T12:14:31.450Z,26.44
2019-05-23T12:19:34.701Z,26.36
2019-05-23T12:24:38.215Z,26.31
2019-05-23T12:29:41.243Z,26.13
2019-05-23T12:34:44.219Z,25.53
2019-05-23T12:39:46.882Z,25.97
2019-05-23T12:44:49.102Z,26.48
2019-05-23T12:49:58.070Z,26.86
2019-05-23T12:55:00.473Z,27.10
2019-05-23T13:00:06.212Z,27.18
2019-05-23T13:05:10.855Z,27.43
2019-05-23T13:10:14.252Z,27.49
2019-05-23T13:15:16.830Z,27.20
2019-05-23T13:20:19.992Z,27.09
2019-05-23T13:25:23.033Z,27.30
2019-05-23T13:30:26.434Z,27.40
2019-05-23T13:35:29.782Z,27.43
2019-05-23T13:40:32.882Z,26.98
2019-05-23T13:45:36.212Z,26.54
2019-05-23T13:50:39.395Z,26.62
2019-05-23T13:55:42.160Z,26.69
2019-05-23T14:00:45.967Z,26.47
2019-05-23T14:05:49.110Z,26.43
2019-05-23T14:10:51.890Z,26.52
2019-05-23T14:15:55.200Z,26.15
2019-05-23T14:20:57.942Z,26.07
2019-05-23T14:26:00.736Z,26.03
2019-05-23T14:31:07.652Z,25.94
2019-05-23T14:36:17.060Z,25.96
2019-05-23T14:41:20.590Z,26.31
2019-05-23T14:46:26.026Z,26.62
2019-05-23T14:51:39.305Z,26.78
2019-05-23T14:56:42.815Z,26.87
2019-05-23T15:01:46.077Z,26.79
2019-05-23T15:06:48.542Z,26.66
2019-05-23T15:11:51.148Z,26.23
2019-05-23T15:16:53.604Z,26.06
2019-05-23T15:21:56.068Z,26.00
2019-05-23T15:26:58.766Z,25.81
2019-05-23T15:32:03.092Z,25.68
2019-05-23T15:37:05.541Z,25.48
2019-05-23T15:42:08.315Z,25.42
2019-05-23T15:47:11.326Z,25.41
2019-05-23T15:52:46.625Z,25.31
2019-05-23T15:57:57.565Z,25.23
2019-05-23T16:03:07.814Z,25.17
2019-05-23T16:08:10.510Z,25.00
2019-05-23T16:13:13.243Z,25.04
2019-05-23T16:18:16.547Z,24.93
2019-05-23T16:23:31.858Z,24.79
2019-05-23T16:28:34.195Z,24.71
2019-05-23T16:33:36.858Z,24.60
2019-05-23T16:38:39.432Z,24.37
2019-05-23T16:43:42.359Z,24.21
2019-05-23T16:48:45.095Z,24.26
2019-05-23T16:53:48.729Z,24.03
2019-05-23T16:59:03.760Z,23.99
2019-05-23T17:04:22.144Z,23.91
2019-05-23T17:09:42.779Z,23.76
2019-05-23T17:14:52.007Z,23.54
2019-05-23T17:20:19.442Z,23.37
2019-05-23T17:25:25.127Z,23.24
2019-05-23T17:30:34.805Z,23.11
2019-05-23T17:35:37.415Z,22.97
2019-05-23T17:40:40.018Z,22.83
2019-05-23T17:45:43.189Z,22.79
2019-05-23T17:50:46.192Z,22.72
2019-05-23T17:55:50.596Z,22.65
2019-05-23T18:00:54.200Z,22.50
2019-05-23T18:05:56.806Z,22.39
2019-05-23T18:10:59.327Z,22.24
2019-05-23T18:16:02.383Z,22.13
2019-05-23T18:21:05.769Z,22.01
2019-05-23T18:26:09.430Z,21.91
2019-05-23T18:31:16.631Z,21.83
2019-05-23T18:36:19.964Z,21.73
2019-05-23T18:41:22.935Z,21.64
2019-05-23T18:46:30.927Z,21.61
2019-05-23T18:51:33.844Z,21.53
2019-05-23T18:56:36.822Z,21.48
2019-05-23T19:01:39.992Z,21.35
2019-05-23T19:06:43.721Z,21.22
2019-05-23T19:11:46.844Z,21.10
2019-05-23T19:16:50.523Z,21.00
2019-05-23T19:21:53.439Z,20.87
2019-05-23T19:26:55.856Z,20.73
2019-05-23T19:32:00.062Z,20.53
2019-05-23T19:37:03.834Z,20.43
2019-05-23T19:42:07.871Z,20.33
2019-05-23T19:47:10.414Z,20.29
2019-05-23T19:52:13.626Z,20.21
2019-05-23T19:57:17.065Z,20.13
2019-05-23T20:02:51.206Z,20.06
2019-05-23T20:07:54.431Z,19.96
2019-05-23T20:12:58.289Z,19.83
2019-05-23T20:18:00.679Z,19.71
2019-05-23T20:23:03.611Z,19.56
2019-05-23T20:28:06.804Z,19.44
2019-05-23T20:33:09.228Z,19.29
2019-05-23T20:38:11.708Z,19.18
2019-05-23T20:43:14.292Z,19.08
2019-05-23T20:48:17.181Z,19.02
2019-05-23T20:53:19.931Z,18.94
2019-05-23T20:58:22.467Z,18.84
2019-05-23T21:03:28.337Z,18.69
2019-05-23T21:08:31.511Z,18.54
2019-05-23T21:13:33.896Z,18.48
2019-05-23T21:18:37.442Z,18.40
2019-05-23T21:23:39.828Z,18.27
2019-05-23T21:28:42.659Z,18.19
2019-05-23T21:33:45.147Z,18.19
2019-05-23T21:38:47.686Z,18.15
2019-05-23T21:43:51.847Z,18.03
2019-05-23T21:48:54.261Z,17.88
2019-05-23T21:53:57.379Z,17.80
2019-05-23T21:58:59.795Z,17.73
2019-05-23T22:04:24.433Z,17.67
2019-05-23T22:09:27.425Z,17.55
2019-05-23T22:14:29.925Z,17.49
2019-05-23T22:19:34.973Z,17.42
2019-05-23T22:24:37.546Z,17.29
2019-05-23T22:29:40.573Z,17.26
2019-05-23T22:34:48.592Z,17.19
2019-05-23T22:39:50.833Z,17.09
2019-05-23T22:44:54.410Z,17.00
2019-05-23T22:49:56.676Z,16.85
2019-05-23T22:54:59.539Z,16.76
2019-05-23T23:00:02.489Z,16.67
2019-05-23T23:05:05.373Z,16.59
2019-05-23T23:10:09.232Z,16.59
2019-05-23T23:15:12.319Z,16.51
2019-05-23T23:20:14.993Z,16.44
2019-05-23T23:25:17.384Z,16.40
2019-05-23T23:30:23.739Z,16.41
2019-05-23T23:35:26.311Z,16.35
2019-05-23T23:40:29.051Z,16.32
2019-05-23T23:45:50.192Z,16.22
2019-05-23T23:51:10.940Z,16.10
2019-05-23T23:56:32.073Z,16.02
